ESMX

Växjö Kronoberg Airport

Växjö, Sweden
METAR ESMX 221920Z 23008KT CAVOK 06/04 Q1018
Observed Flight Rules
Oct-22 @ 19:20 UTC (19 minutes ago) Visual Flight Rules
Wind Visibility Clouds
230° at 8 knots 10,000+ meters
  • Clear skies
Temperatures Readings
Current 6°C / 43°F
Dewpoint 4°C / 39°F
Humidity 87%
Altimeter 30.06" Hg
Pressure 1018 hPa
Elevation 186
METAR ESMX 221920Z 23008KT CAVOK 06/04 Q1018
Observed Flight Rules
Oct-22 @ 19:20 UTC
(19 minutes ago)
VFR
Wind Visibility
230° at 8 knots 10,000+ meters
Clouds
  • Clear skies
Temperature Dewpoint
6°C / 43°F 4°C / 39°F
Humidity Altimeter Pressure
87% 30.06" Hg 1018 hPa